Skip Navigation LinksHome page > Weather > Current weather Skip Navigation Links

Current Weather

Lansing Muni, Lansing, Ill.

For information only: do not use for flight planning or navigation.
Latest weather
Observation time Monday, December 6, 2021 7:15 AM CST
Local time Monday, December 6, 2021 7:41 AM CST
Flight conditions Visual Meteorological Conditions
Winds
Wind direction West (280°)
Wind speed 18 mph
Wind gusting to 32 mph
Visibility 10 mi.
Sky condition
Ceiling 4,100 ft. overcast
Cloud layer overcast 4,100 ft.
Temperature 32°F
Dewpoint 21°F
Altimeter 29.84 in.Hg
Derived measurements
Relative humidity 63%
Wind chill 20°F
Density altitude -1073 ft.
Remarks
Fully automated report.
Automated weather observing station with precipitation discriminator.
METAR KIGQ 061315Z AUTO 28016G28KT 10SM OVC041 00/M06 A2984 RMK AO2 T10011062

Settings

Location code

InnerDrive.Weather 4.0.6770.0 Release CLR 4.0.30319.42000
Copyright ©2018 Inner Drive Technology. All rights reserved. Portions Copyright ©1986-2018 David Braverman.

Find weather

Site navigation


Skip Navigation Links

Place info

Page info

PayPal - The safer, easier way to pay online!

Return home.

Copyright ©2021 Inner Drive Technology. Purveyors of fine, hand-crafted computer software. Page printed 2021-12-06T13:41:53 UTC.